createdAt,value
2022-11-09T00:02:05.850Z,37.25
2022-11-09T00:04:37.599Z,35.28
2022-11-09T00:07:08.701Z,34.85
2022-11-09T00:09:39.585Z,33.88
2022-11-09T00:12:09.134Z,34.83
2022-11-09T00:14:43.362Z,34.42
2022-11-09T00:17:14.792Z,34.35
2022-11-09T00:19:47.420Z,35.15
2022-11-09T00:22:18.899Z,35.70
2022-11-09T00:24:51.575Z,34.05
2022-11-09T00:27:23.177Z,35.38
2022-11-09T00:29:52.346Z,34.00
2022-11-09T00:32:27.577Z,33.95
2022-11-09T00:35:01.167Z,33.53
2022-11-09T00:37:34.273Z,34.50
2022-11-09T00:40:04.966Z,33.60
2022-11-09T00:42:37.591Z,32.33
2022-11-09T00:45:08.531Z,34.22
2022-11-09T00:47:39.503Z,33.92
2022-11-09T00:50:10.309Z,32.42
2022-11-09T00:52:45.643Z,34.03
2022-11-09T00:55:15.570Z,35.50
2022-11-09T00:57:49.760Z,34.22
2022-11-09T01:00:24.235Z,35.20
2022-11-09T01:02:57.196Z,29.57
2022-11-09T01:05:35.419Z,31.83
2022-11-09T01:08:05.683Z,31.83
2022-11-09T01:10:37.099Z,31.17
2022-11-09T01:13:07.776Z,30.65
2022-11-09T01:15:56.228Z,31.80
2022-11-09T01:18:25.215Z,32.17
2022-11-09T01:20:57.748Z,31.45
2022-11-09T01:23:25.371Z,33.13
2022-11-09T01:26:02.633Z,34.53
2022-11-09T01:31:27.720Z,33.92
2022-11-09T01:33:57.935Z,32.83
2022-11-09T01:36:30.301Z,34.45
2022-11-09T01:39:07.803Z,33.00
2022-11-09T01:41:45.979Z,33.55
2022-11-09T01:44:20.490Z,34.38
2022-11-09T01:47:18.919Z,37.25
2022-11-09T01:50:09.175Z,35.38
2022-11-09T01:52:44.576Z,33.80
2022-11-09T01:55:17.153Z,33.35
2022-11-09T01:58:09.207Z,31.15
2022-11-09T02:00:46.899Z,30.63
2022-11-09T02:03:34.394Z,32.83
2022-11-09T02:06:08.756Z,34.20
2022-11-09T02:08:39.911Z,45.53
2022-11-09T02:11:31.234Z,39.50
2022-11-09T02:14:01.164Z,29.23
2022-11-09T02:16:33.834Z,34.47
2022-11-09T02:21:54.943Z,29.27
2022-11-09T02:24:28.101Z,33.90
2022-11-09T02:26:58.812Z,33.05
2022-11-09T02:29:41.106Z,33.15
2022-11-09T02:32:23.167Z,34.85
2022-11-09T02:34:55.844Z,32.88
2022-11-09T02:37:50.432Z,32.17
2022-11-09T02:40:27.259Z,32.80
2022-11-09T02:43:00.227Z,32.42
2022-11-09T02:45:30.058Z,32.38
2022-11-09T02:48:01.263Z,35.97
2022-11-09T02:50:32.534Z,38.95
2022-11-09T02:53:01.200Z,34.05
2022-11-09T02:55:34.470Z,41.50
2022-11-09T02:58:01.937Z,38.63
2022-11-09T03:00:33.885Z,35.67
2022-11-09T03:03:01.371Z,33.10
2022-11-09T03:05:30.366Z,43.13
2022-11-09T03:08:03.690Z,35.70
2022-11-09T03:10:39.443Z,36.30
2022-11-09T03:13:11.410Z,30.17
2022-11-09T03:15:50.686Z,36.13
2022-11-09T03:18:20.298Z,33.28
2022-11-09T03:20:50.871Z,49.65
2022-11-09T03:23:22.207Z,48.50
2022-11-09T03:25:52.407Z,40.42
2022-11-09T03:28:20.391Z,38.70
2022-11-09T03:30:53.470Z,41.47
2022-11-09T03:33:23.755Z,39.50
2022-11-09T03:35:56.749Z,42.42
2022-11-09T03:38:28.677Z,39.28
2022-11-09T03:41:02.473Z,32.40
2022-11-09T03:43:37.897Z,31.48
2022-11-09T03:46:05.366Z,28.27
2022-11-09T03:48:35.699Z,29.67
2022-11-09T03:51:05.864Z,31.65
2022-11-09T03:53:39.959Z,30.45
2022-11-09T03:56:09.892Z,31.98
2022-11-09T03:58:40.033Z,31.30
2022-11-09T04:01:08.300Z,34.28
2022-11-09T04:03:41.622Z,34.65
2022-11-09T04:06:15.840Z,34.25
2022-11-09T04:08:51.285Z,31.27
2022-11-09T04:11:23.951Z,30.05
2022-11-09T04:13:54.849Z,27.20
2022-11-09T04:16:24.470Z,26.35
2022-11-09T04:18:53.800Z,26.85
2022-11-09T04:21:23.944Z,23.65
2022-11-09T04:23:52.582Z,24.85
2022-11-09T04:26:23.636Z,26.88
2022-11-09T04:28:53.584Z,28.42
2022-11-09T04:31:28.150Z,28.50
2022-11-09T04:33:59.876Z,28.20
2022-11-09T04:36:28.440Z,30.63
2022-11-09T04:39:00.883Z,30.27
2022-11-09T04:41:30.794Z,32.17
2022-11-09T04:44:01.958Z,32.72
2022-11-09T04:46:32.562Z,31.07
2022-11-09T04:49:01.854Z,29.40
2022-11-09T04:51:32.781Z,29.70
2022-11-09T04:54:04.321Z,30.80
2022-11-09T04:56:35.326Z,30.65
2022-11-09T04:59:05.862Z,28.10
2022-11-09T05:01:37.970Z,25.58
2022-11-09T05:04:08.733Z,23.15
2022-11-09T05:06:40.027Z,21.80
2022-11-09T05:09:11.274Z,22.02
2022-11-09T05:11:39.697Z,23.38
2022-11-09T05:16:53.106Z,21.48
2022-11-09T05:19:23.701Z,22.80
2022-11-09T05:21:51.139Z,23.52
2022-11-09T05:24:19.507Z,21.70
2022-11-09T05:26:51.836Z,18.45
2022-11-09T05:29:21.947Z,17.88
2022-11-09T05:31:53.861Z,18.40
2022-11-09T05:34:24.683Z,16.15
2022-11-09T05:37:00.790Z,14.48
2022-11-09T05:39:35.425Z,16.07
2022-11-09T05:42:07.236Z,17.23
2022-11-09T05:44:37.673Z,16.13
2022-11-09T05:47:11.776Z,17.20
2022-11-09T05:49:46.963Z,17.15
2022-11-09T05:52:16.743Z,17.48
2022-11-09T05:54:47.018Z,17.02
2022-11-09T05:57:20.099Z,17.25
2022-11-09T05:59:53.726Z,15.65
2022-11-09T06:02:21.236Z,17.25
2022-11-09T06:04:51.179Z,17.65
2022-11-09T06:07:20.776Z,17.40
2022-11-09T06:09:51.977Z,19.17
2022-11-09T06:12:23.361Z,18.40
2022-11-09T06:14:54.793Z,17.75
2022-11-09T06:17:23.696Z,17.60
2022-11-09T06:19:52.475Z,18.58
2022-11-09T06:22:24.168Z,18.52
2022-11-09T06:24:51.426Z,20.30
2022-11-09T06:27:20.457Z,20.33
2022-11-09T06:29:51.074Z,19.10
2022-11-09T06:32:22.206Z,19.10
2022-11-09T06:34:52.420Z,20.27
2022-11-09T06:37:23.439Z,19.10
2022-11-09T06:39:56.653Z,21.20
2022-11-09T06:42:25.941Z,20.60
2022-11-09T06:44:54.879Z,19.30
2022-11-09T06:47:22.497Z,20.25
2022-11-09T06:49:58.283Z,20.27
2022-11-09T06:54:54.827Z,22.58
2022-11-09T06:57:25.146Z,21.48
2022-11-09T06:59:52.740Z,19.67
2022-11-09T07:02:25.058Z,21.23
2022-11-09T07:04:55.930Z,22.20
2022-11-09T07:07:27.982Z,20.90
2022-11-09T07:10:00.484Z,21.85
2022-11-09T07:12:31.175Z,20.95
2022-11-09T07:15:01.009Z,22.88
2022-11-09T07:17:34.140Z,20.17
2022-11-09T07:20:02.500Z,21.30
2022-11-09T07:22:38.552Z,22.73
2022-11-09T07:25:13.006Z,20.60
2022-11-09T07:27:41.041Z,20.40
2022-11-09T07:30:12.752Z,24.17
2022-11-09T07:33:08.010Z,23.77
2022-11-09T07:38:22.680Z,19.83
2022-11-09T07:40:54.915Z,20.83
2022-11-09T07:43:29.578Z,22.40
2022-11-09T07:46:05.732Z,21.30
2022-11-09T07:48:36.082Z,18.83
2022-11-09T07:51:18.062Z,20.23
2022-11-09T07:53:48.916Z,19.42
2022-11-09T07:56:24.791Z,20.13
2022-11-09T07:58:55.015Z,20.40
2022-11-09T08:01:22.458Z,21.88
2022-11-09T08:03:55.850Z,22.23
2022-11-09T08:06:30.652Z,19.98
2022-11-09T08:11:33.360Z,18.10
2022-11-09T08:14:10.733Z,17.15
2022-11-09T08:16:43.010Z,16.13
2022-11-09T08:19:12.920Z,16.83
2022-11-09T08:21:41.387Z,15.75
2022-11-09T08:24:15.147Z,17.25
2022-11-09T08:26:48.255Z,18.27
2022-11-09T08:29:17.910Z,19.55
2022-11-09T08:31:51.731Z,17.48
2022-11-09T08:34:24.455Z,17.75
2022-11-09T08:36:56.115Z,20.33
2022-11-09T08:39:25.829Z,22.42
2022-11-09T08:41:53.968Z,22.02
2022-11-09T08:44:25.016Z,21.17
2022-11-09T08:46:57.489Z,20.90
2022-11-09T08:49:29.325Z,22.27
2022-11-09T08:51:57.952Z,20.73
2022-11-09T08:54:32.046Z,21.88
2022-11-09T08:57:04.448Z,21.63
2022-11-09T08:59:33.959Z,20.67
2022-11-09T09:02:02.221Z,20.77
2022-11-09T09:04:34.538Z,20.65
2022-11-09T09:07:05.458Z,20.85
2022-11-09T09:09:39.224Z,22.60
2022-11-09T09:12:12.733Z,21.83
2022-11-09T09:14:42.240Z,24.55
2022-11-09T09:17:16.045Z,24.10
2022-11-09T09:19:49.826Z,25.40
2022-11-09T09:22:23.233Z,25.75
2022-11-09T09:24:51.974Z,24.15
2022-11-09T09:27:26.486Z,23.08
2022-11-09T09:29:55.980Z,23.42
2022-11-09T09:32:28.391Z,23.02
2022-11-09T09:34:59.386Z,23.27
2022-11-09T09:37:29.077Z,22.77
2022-11-09T09:40:00.328Z,23.75
2022-11-09T09:42:43.555Z,23.40
2022-11-09T09:45:25.908Z,22.95
2022-11-09T09:48:11.206Z,24.77
2022-11-09T09:50:51.042Z,23.98
2022-11-09T09:53:59.315Z,25.98
2022-11-09T09:56:41.364Z,27.15
2022-11-09T09:59:20.309Z,26.92
2022-11-09T10:01:51.390Z,27.83
2022-11-09T10:04:29.918Z,26.42
2022-11-09T10:07:37.327Z,24.73
2022-11-09T10:10:42.337Z,24.98
2022-11-09T10:13:45.680Z,23.75
2022-11-09T10:16:38.813Z,22.92
2022-11-09T10:19:20.360Z,23.08
2022-11-09T10:22:22.179Z,21.80
2022-11-09T10:25:32.191Z,21.90
2022-11-09T10:28:16.104Z,20.55
2022-11-09T10:30:46.608Z,20.38
2022-11-09T10:33:30.339Z,20.83
2022-11-09T10:36:34.104Z,19.42
2022-11-09T10:39:05.043Z,19.05
2022-11-09T10:41:54.355Z,18.80
2022-11-09T10:47:53.206Z,18.38
2022-11-09T10:50:57.848Z,18.42
2022-11-09T10:53:49.391Z,18.08
2022-11-09T10:57:06.757Z,18.30
2022-11-09T11:00:01.306Z,18.55
2022-11-09T11:06:02.801Z,18.30
2022-11-09T11:09:12.802Z,17.17
2022-11-09T11:12:19.108Z,17.63
2022-11-09T11:15:34.313Z,17.48
2022-11-09T11:18:27.391Z,18.17
2022-11-09T11:21:27.079Z,16.83
2022-11-09T11:24:27.323Z,16.98
2022-11-09T11:27:43.500Z,16.55
2022-11-09T11:30:41.781Z,17.27
2022-11-09T11:33:34.053Z,17.10
2022-11-09T11:36:57.538Z,16.70
2022-11-09T11:39:44.944Z,17.10
2022-11-09T11:42:54.806Z,18.42
2022-11-09T11:45:50.179Z,18.10
2022-11-09T11:49:24.503Z,16.80
2022-11-09T11:52:41.521Z,15.70
2022-11-09T11:55:49.780Z,16.30
2022-11-09T11:59:04.553Z,16.48
2022-11-09T12:02:26.764Z,17.00
2022-11-09T12:05:53.785Z,16.83
2022-11-09T12:09:21.154Z,16.35
2022-11-09T12:12:21.842Z,17.45
2022-11-09T12:15:31.333Z,16.27
2022-11-09T12:18:46.736Z,15.32
2022-11-09T12:22:14.592Z,15.30
2022-11-09T12:25:27.195Z,14.93
2022-11-09T12:28:17.904Z,15.93
2022-11-09T12:31:24.895Z,15.13
2022-11-09T12:34:14.147Z,15.02
2022-11-09T12:37:12.714Z,14.57
2022-11-09T12:40:14.884Z,15.43
2022-11-09T12:43:45.560Z,14.57
2022-11-09T12:46:42.974Z,14.38
2022-11-09T12:49:44.523Z,13.57
2022-11-09T12:53:01.274Z,12.57
2022-11-09T12:56:17.937Z,12.50
2022-11-09T12:59:52.567Z,11.50
2022-11-09T13:03:10.561Z,11.13
2022-11-09T13:06:19.856Z,11.85
2022-11-09T13:09:17.646Z,10.07
2022-11-09T13:12:20.239Z,10.73
2022-11-09T13:15:29.624Z,9.38
2022-11-09T13:18:45.440Z,8.70
2022-11-09T13:21:38.183Z,8.77
2022-11-09T13:24:57.529Z,10.35
2022-11-09T13:30:49.022Z,8.63
2022-11-09T13:33:39.065Z,10.30
2022-11-09T13:36:27.464Z,9.10
2022-11-09T13:39:35.579Z,8.80
2022-11-09T13:42:39.326Z,8.90
2022-11-09T13:45:50.181Z,10.20
2022-11-09T13:48:52.548Z,9.43
2022-11-09T13:51:48.307Z,10.80
2022-11-09T13:54:51.362Z,10.48
2022-11-09T14:00:56.280Z,10.13
2022-11-09T14:03:54.951Z,11.50
2022-11-09T14:06:43.138Z,10.98
2022-11-09T14:10:12.445Z,11.77
2022-11-09T14:13:23.578Z,12.38
2022-11-09T14:16:26.283Z,11.30
2022-11-09T14:19:54.439Z,11.52
2022-11-09T14:22:44.929Z,11.98
2022-11-09T14:25:37.139Z,11.60
2022-11-09T14:28:31.864Z,13.25
2022-11-09T14:31:33.423Z,9.48
2022-11-09T14:34:24.636Z,11.60
2022-11-09T14:37:16.009Z,12.85
2022-11-09T14:40:07.580Z,13.65
2022-11-09T14:43:33.647Z,13.05
2022-11-09T14:46:25.390Z,13.38
2022-11-09T14:49:15.808Z,12.85
2022-11-09T14:52:03.662Z,13.50
2022-11-09T14:54:56.161Z,12.95
2022-11-09T14:57:46.928Z,13.25
2022-11-09T15:00:35.040Z,13.05
2022-11-09T15:03:28.788Z,13.05
2022-11-09T15:06:20.413Z,13.98
2022-11-09T15:09:21.508Z,14.82
2022-11-09T15:12:36.627Z,14.80
2022-11-09T15:15:30.687Z,16.00
2022-11-09T15:18:21.055Z,17.67
2022-11-09T15:21:27.691Z,17.85
2022-11-09T15:24:29.760Z,17.95
2022-11-09T15:27:40.988Z,20.75
2022-11-09T15:30:45.894Z,21.83
2022-11-09T15:33:53.585Z,22.73
2022-11-09T15:36:45.059Z,23.60
2022-11-09T15:39:38.773Z,22.33
2022-11-09T15:42:31.782Z,21.17
2022-11-09T15:45:25.220Z,24.35
2022-11-09T15:48:13.139Z,29.58
2022-11-09T15:51:07.099Z,28.20
2022-11-09T15:54:01.160Z,24.05
2022-11-09T15:56:51.675Z,26.45
2022-11-09T15:59:41.607Z,27.30
2022-11-09T16:02:37.665Z,26.23
2022-11-09T16:05:30.851Z,24.75
2022-11-09T16:08:18.737Z,31.40
2022-11-09T16:11:12.065Z,40.72
2022-11-09T16:14:12.903Z,27.70
2022-11-09T16:17:00.433Z,27.83
2022-11-09T16:19:49.747Z,39.47
2022-11-09T16:22:40.938Z,48.00
2022-11-09T16:25:30.936Z,45.88
2022-11-09T16:28:19.046Z,40.72
2022-11-09T16:31:08.924Z,40.78
2022-11-09T16:34:10.701Z,40.30
2022-11-09T16:37:06.216Z,38.83
2022-11-09T16:40:05.720Z,46.10
2022-11-09T16:45:54.565Z,30.95
2022-11-09T16:48:43.628Z,29.98
2022-11-09T16:51:34.952Z,33.00
2022-11-09T16:54:25.939Z,38.85
2022-11-09T16:57:18.048Z,36.33
2022-11-09T17:00:13.709Z,38.92
2022-11-09T17:03:39.698Z,36.67
2022-11-09T17:06:37.793Z,32.43
2022-11-09T17:09:27.700Z,31.52
2022-11-09T17:12:38.879Z,35.47
2022-11-09T17:15:27.779Z,42.08
2022-11-09T17:18:15.655Z,41.70
2022-11-09T17:21:06.914Z,40.03
2022-11-09T17:23:59.230Z,45.95
2022-11-09T17:26:48.981Z,45.92
2022-11-09T17:29:51.922Z,47.53
2022-11-09T17:32:43.569Z,44.90
2022-11-09T17:35:38.683Z,43.72
2022-11-09T17:38:28.769Z,42.05
2022-11-09T17:41:22.601Z,33.30
2022-11-09T17:44:09.460Z,30.83
2022-11-09T17:46:58.789Z,30.63
2022-11-09T17:49:46.999Z,32.05
2022-11-09T17:52:39.201Z,30.98
2022-11-09T17:55:29.799Z,30.58
2022-11-09T17:58:21.556Z,30.90
2022-11-09T18:04:15.695Z,34.42
2022-11-09T18:07:03.864Z,33.42
2022-11-09T18:09:54.986Z,33.20
2022-11-09T18:12:41.950Z,32.33
2022-11-09T18:15:33.322Z,34.13
2022-11-09T18:18:24.836Z,34.70
2022-11-09T18:21:22.720Z,35.05
2022-11-09T18:24:14.153Z,36.03
2022-11-09T18:27:03.559Z,35.15
2022-11-09T18:29:52.717Z,35.20
2022-11-09T18:32:41.723Z,34.58
2022-11-09T18:35:34.743Z,35.90
2022-11-09T18:38:30.798Z,42.22
2022-11-09T18:41:36.808Z,39.22
2022-11-09T18:44:28.886Z,39.33
2022-11-09T18:47:20.162Z,41.35
2022-11-09T18:50:11.176Z,41.60
2022-11-09T18:53:00.953Z,40.88
2022-11-09T18:55:51.998Z,44.45
2022-11-09T18:58:40.971Z,44.70
2022-11-09T19:01:29.376Z,46.75
2022-11-09T19:04:19.833Z,51.33
2022-11-09T19:07:19.539Z,55.13
2022-11-09T19:10:07.114Z,49.00
2022-11-09T19:16:04.075Z,43.80
2022-11-09T19:18:54.111Z,45.83
2022-11-09T19:21:57.413Z,48.83
2022-11-09T19:24:47.577Z,50.30
2022-11-09T19:27:35.784Z,55.78
2022-11-09T19:30:29.007Z,45.00
2022-11-09T19:33:20.184Z,43.30
2022-11-09T19:36:29.886Z,48.25
2022-11-09T19:39:21.247Z,52.13
2022-11-09T19:42:10.482Z,50.97
2022-11-09T19:45:01.750Z,67.60
2022-11-09T19:47:53.027Z,73.55
2022-11-09T19:50:43.076Z,56.45
2022-11-09T19:53:33.266Z,40.60
2022-11-09T19:56:29.867Z,38.97
2022-11-09T19:59:17.782Z,49.28
2022-11-09T20:02:19.352Z,50.90
2022-11-09T20:05:10.877Z,57.05
2022-11-09T20:08:10.615Z,46.03
2022-11-09T20:11:12.338Z,49.80
2022-11-09T20:13:59.740Z,46.58
2022-11-09T20:16:49.689Z,46.05
2022-11-09T20:19:41.427Z,44.67
2022-11-09T20:22:33.194Z,40.95
2022-11-09T20:25:24.086Z,41.65
2022-11-09T20:28:14.456Z,45.13
2022-11-09T20:31:10.041Z,44.78
2022-11-09T20:34:03.409Z,45.33
2022-11-09T20:36:58.493Z,45.10
2022-11-09T20:39:48.548Z,45.90
2022-11-09T20:42:37.092Z,46.55
2022-11-09T20:45:26.031Z,45.70
2022-11-09T20:48:38.156Z,46.03
2022-11-09T20:51:24.873Z,43.15
2022-11-09T20:54:16.016Z,44.65
2022-11-09T20:57:07.489Z,45.33
2022-11-09T20:59:59.412Z,47.53
2022-11-09T21:02:50.370Z,45.42
2022-11-09T21:05:44.444Z,45.00
2022-11-09T21:08:47.520Z,45.15
2022-11-09T21:12:00.549Z,45.45
2022-11-09T21:14:50.190Z,45.58
2022-11-09T21:17:39.784Z,42.97
2022-11-09T21:20:29.121Z,46.42
2022-11-09T21:23:17.286Z,47.25
2022-11-09T21:26:24.497Z,49.13
2022-11-09T21:29:37.986Z,49.95
2022-11-09T21:32:29.345Z,47.17
2022-11-09T21:35:17.859Z,47.25
2022-11-09T21:38:07.864Z,47.25
2022-11-09T21:41:25.926Z,45.17
2022-11-09T21:47:06.297Z,45.40
2022-11-09T21:49:54.651Z,46.10
2022-11-09T21:52:44.834Z,44.92
2022-11-09T21:55:36.563Z,48.78
2022-11-09T21:58:25.941Z,46.33
2022-11-09T22:01:18.994Z,48.67
2022-11-09T22:04:08.734Z,47.60
2022-11-09T22:06:58.294Z,48.53
2022-11-09T22:10:10.804Z,47.92
2022-11-09T22:13:20.336Z,44.15
2022-11-09T22:16:12.923Z,44.50
2022-11-09T22:19:24.096Z,45.75
2022-11-09T22:22:12.676Z,46.30
2022-11-09T22:25:04.708Z,44.75
2022-11-09T22:27:55.496Z,42.65
2022-11-09T22:33:47.838Z,45.53
2022-11-09T22:36:45.898Z,45.35
2022-11-09T22:39:35.330Z,43.25
2022-11-09T22:42:25.123Z,45.53
2022-11-09T22:45:21.541Z,44.60
2022-11-09T22:48:12.662Z,43.13
2022-11-09T22:51:04.960Z,42.97
2022-11-09T22:53:56.057Z,40.35
2022-11-09T22:56:46.211Z,41.15
2022-11-09T22:59:41.342Z,43.67
2022-11-09T23:02:30.248Z,41.05
2022-11-09T23:05:21.621Z,40.22
2022-11-09T23:08:11.779Z,43.50
2022-11-09T23:11:01.968Z,42.55
2022-11-09T23:13:55.635Z,38.97
2022-11-09T23:16:48.081Z,36.65
2022-11-09T23:19:37.065Z,38.33
2022-11-09T23:22:24.575Z,39.25
2022-11-09T23:25:36.450Z,38.50
2022-11-09T23:28:47.966Z,37.25
2022-11-09T23:31:43.222Z,39.25
2022-11-09T23:34:34.430Z,37.85
2022-11-09T23:37:24.263Z,36.72
2022-11-09T23:40:12.849Z,37.30
2022-11-09T23:43:11.157Z,37.47
2022-11-09T23:46:03.946Z,37.83
2022-11-09T23:48:53.670Z,37.58
2022-11-09T23:51:40.901Z,45.13
2022-11-09T23:54:31.157Z,45.83
2022-11-09T23:57:23.514Z,37.95
